Flight Track Log - Related Links

Times and Time Zones

All times are in EDT time to prevent confusion due to time zone crossing. See the UAL4159 flight status page for this flight to view local times or setup timezone preferences in your user account.

Time Position Orientation Groundspeed Altitude Reporting Facility
EDT Latitude Longitude Course Direction KTS MPH feet Rate Location/Type
Mon 07:21:02 PM 30.4572 -91.1964 260° West 251 289 5,000  Level Houston Center
Mon 07:22:00 PM 30.4624 -91.5052 263° West  Level FlightAware Approximate
Mon 07:22:04 PM 30.4464 -91.2822 262° West 266 306 7,600  Level Houston Center
Mon 07:23:00 PM 30.4516 -91.6023 263° West  Level FlightAware Approximate
Mon 07:23:06 PM 30.4247 -91.3639 253° West 265 305 10,000  Level Houston Center
Mon 07:24:00 PM 30.4252 -91.6936 227° Southwest  Level FlightAware Approximate
Mon 07:24:08 PM 30.3908 -91.4503 246° West 290 334 11,200  Level Houston Center
Mon 07:25:00 PM 30.3641 -91.7697 226° Southwest  Level FlightAware Approximate
Mon 07:25:10 PM 30.3556 -91.5494 248° West 329 379 12,100  Level Houston Center
Mon 07:26:12 PM 30.3172 -91.6525 247° West 346 398 13,700 1,548 Climbing Houston Center
Mon 07:27:14 PM 30.2769 -91.7631 247° West 347 399 15,300 1,463 Climbing Houston Center
Mon 07:28:15 PM 30.2392 -91.8675 247° West 349 402 16,700 1,366 Climbing Houston Center
Mon 07:29:17 PM 30.1978 -91.9794 247° West 352 405 18,100 1,306 Climbing Houston Center
Mon 07:30:19 PM 30.1408 -92.0719 235° Southwest 351 404 19,400 1,161 Climbing Houston Center
Mon 07:31:21 PM 30.0808 -92.1664 234° Southwest 362 417 20,500 968 Climbing Houston Center
Mon 07:32:23 PM 30.0181 -92.2619 233° Southwest 369 425 21,400 1,024 Climbing Houston Center
Mon 07:33:24 PM 29.9425 -92.3789 233° Southwest 378 435 22,600 1,073 Climbing Houston Center
Mon 07:34:26 PM 29.8783 -92.4792 234° Southwest 385 443 23,600 968 Climbing Houston Center
Mon 07:35:28 PM 29.8133 -92.5781 233° Southwest 386 444 24,600 968 Climbing Houston Center
Mon 07:36:30 PM 29.7486 -92.6764 233° Southwest 385 443 25,600 968 Climbing Houston Center
Mon 07:37:32 PM 29.6853 -92.7739 233° Southwest 381 438 26,600 976 Climbing Houston Center
Mon 07:38:33 PM 29.6197 -92.8708 232° Southwest 381 438 27,600 976 Climbing Houston Center
Mon 07:39:35 PM 29.5567 -92.9664 233° Southwest 375 432 28,600 1,113 Climbing Houston Center
Mon 07:40:37 PM 29.5214 -93.0983 253° West 368 423 29,900 677 Climbing Houston Center
Mon 07:41:39 PM 29.5236 -93.2175 271° West 372 428 30,000 -49 Climbing Houston Center
Mon 07:42:40 PM 29.5239 -93.3433 270° West 389 448 29,800 -585 Descending Houston Center
Mon 07:43:42 PM 29.5258 -93.4736 271° West 404 465 28,800 -968 Descending Houston Center
Mon 07:44:44 PM 29.5269 -93.6067 271° West 413 475 27,800 -1,500 Descending Houston Center
Mon 07:45:46 PM 29.5286 -93.7381 271° West 412 474 25,700 -2,683 Descending Houston Center
Mon 07:46:47 PM 29.5300 -93.8561 271° West 377 434 22,300 -3,317 Descending Houston Center
Mon 07:47:49 PM 29.5303 -93.9692 270° West 358 412 18,900 -3,566 Descending Houston Center
Mon 07:48:33 PM 29.5317 -94.0689 271° West 349 402 16,000 -3,194 Descending Houston Center
Mon 07:48:51 PM 29.5319 -94.0811 271° West 353 406 15,600 -3,209 Descending Houston Center
Mon 07:49:16 PM 29.5317 -94.1508 270° West 354 407 13,700 -2,656 Descending Houston Center
Mon 07:49:52 PM 29.5322 -94.2172 271° West 352 405 12,900 -764 Descending Houston Center
Mon 07:50:11 PM 29.5314 -94.2517 268° West 342 394 13,000  Climbing Houston Center
Mon 07:50:54 PM 29.5322 -94.3219 271° West 334 384 12,900 -448 Descending Houston Center
Mon 07:51:18 PM 29.5400 -94.3611 283° West 313 360 12,500 -1,548 Descending Houston Center
Mon 07:51:56 PM 29.5606 -94.4103 296° West 298 343 11,300 -1,964 Descending Houston Center
Mon 07:52:13 PM 29.5731 -94.4386 297° West 291 335 10,700 -1,839 Descending Houston Center
Mon 07:52:58 PM 29.5969 -94.4931 297° West 292 336 9,400 -1,869 Descending Houston Center
Mon 07:53:14 PM 29.6086 -94.5231 294° West 288 331 8,800 -1,672 Descending Houston Center
Mon 07:53:59 PM 29.6450 -94.5625 317° Northwest 281 323 7,700 -1,574 Descending Houston Center
Mon 07:54:15 PM 29.6675 -94.5875 316° Northwest 272 313 7,200 -774 Descending Houston Center
Mon 07:55:01 PM 29.7014 -94.6189 321° Northwest 272 313 6,900 -197 Descending Houston Center
Mon 07:55:16 PM 29.7233 -94.6431 316° Northwest 269 310 7,000  Climbing Houston Center
Mon 07:56:03 PM 29.7550 -94.6753 319° Northwest 265 305 6,900 -818 Descending Houston Center
Mon 07:56:22 PM 29.7742 -94.7114 301° West 264 304 6,100 -2,226 Descending Houston Center
Mon 07:57:05 PM 29.8036 -94.7619 304° West 273 314 4,600 -1,869 Descending Houston Center
Mon 07:57:23 PM 29.8125 -94.7836 295° West 273 314 4,200 -581 Descending Houston Center
Mon 07:58:07 PM 29.8414 -94.8375 302° West 276 318 4,000 -197 Descending Houston Center
Mon 07:58:24 PM 29.8542 -94.8675 296° West 279 321 4,000 -98 Level Houston Center
Mon 07:59:08 PM 29.8806 -94.9144 303° West 278 320 3,900 -492 Descending Houston Center
Mon 07:59:25 PM 29.8950 -94.9442 299° West 277 319 3,500 -871 Descending Houston Center
Mon 08:00:10 PM 29.9203 -94.9906 302° West 279 321 3,000 -280 Descending Houston Center
Mon 08:01:12 PM 29.9581 -95.0667 300° West 277 319 3,000  Level Houston Center

Login

Don't have an account? Register now (free) for customized features, flight alerts, and more!